Terminal Aerodrome Forecast
Issued by NWS

Current Version | Previous Version | Graphics & Text | Print | Product List | Glossary On
Versions: 1 2 3 4 5 6 7 8 9 10 11 12 13 14 15 16 17 18 19
000
FTUS41 KILN 211100
TAFLUK
TAF
KLUK 211120Z 2112/2212 00000KT P6SM BKN200
     FM211500 22010KT P6SM FEW070 BKN150
     FM220200 23005KT P6SM VCSH SCT050 OVC100
     FM220600 24006KT P6SM -SHRA SCT015 OVC050
     FM221100 29010KT P6SM OVC022=

USA.gov is the U.S. government's official web portal to all federal, state and local government web resources and services.